Time;durP1;ratioP1;P1;durP2;ratioP2;P2;SDS_P1;SDS_P2;PMS_P1;PMS_P2;Temp;Humidity;BMP_temperature;BMP_pressure;BME280_temperature;BME280_humidity;BME280_pressure;Samples;Min_cycle;Max_cycle;Signal;HPM_P1;HPM_P2
2023/09/29 03:02:03;;;;;;;;;;;16.10;99.90;;;;;;5254979;23;19929;-78
2023/09/29 03:04:29;;;;;;;;;;;16.20;99.90;;;;;;4997804;28;19921;-79
2023/09/29 03:06:56;;;;;;;;;;;16.20;99.90;;;;;;5015262;28;19925;-77
2023/09/29 03:09:22;;;;;;;;;;;16.20;99.90;;;;;;4997601;28;19961;-79
2023/09/29 03:11:48;;;;;;;;;;;16.20;99.90;;;;;;4984468;28;20333;-77
2023/09/29 03:14:16;;;;;;;;;;;16.20;99.90;;;;;;4978411;28;19929;-77
2023/09/29 03:16:42;;;;;;;;;;;16.20;99.90;;;;;;4995682;28;20036;-76
2023/09/29 03:19:08;;;;;;;;;;;16.30;99.90;;;;;;4961904;28;20403;-78
2023/09/29 03:21:34;;;;;;;;;;;16.20;99.90;;;;;;4977824;28;19972;-77
2023/09/29 03:24:00;;;;;;;;;;;16.20;99.90;;;;;;4961764;28;19968;-77
2023/09/29 03:26:26;;;;;;;;;;;16.20;99.90;;;;;;4978044;28;20250;-77
2023/09/29 03:28:54;;;;;;;;;;;16.20;99.90;;;;;;4977732;28;19926;-78
2023/09/29 03:31:22;;;;;;;;;;;16.20;99.90;;;;;;4977754;28;19973;-77
2023/09/29 03:33:48;;;;;;;;;;;16.20;99.90;;;;;;4977669;28;20381;-77
2023/09/29 03:36:14;;;;;;;;;;;16.20;99.90;;;;;;4995202;28;19932;-79
2023/09/29 03:38:41;;;;;;;;;;;16.20;99.90;;;;;;4961571;28;19976;-77
2023/09/29 03:41:08;;;;;;;;;;;16.20;99.90;;;;;;4977530;28;19942;-78
2023/09/29 03:43:33;;;;;;;;;;;16.20;99.90;;;;;;4977542;28;19926;-76
2023/09/29 03:45:59;;;;;;;;;;;16.30;99.90;;;;;;4994923;28;20084;-77
2023/09/29 03:48:25;;;;;;;;;;;16.20;99.90;;;;;;4977515;28;20391;-78
2023/09/29 03:50:51;;;;;;;;;;;16.20;99.90;;;;;;4977257;28;19926;-76
2023/09/29 03:53:17;;;;;;;;;;;16.20;99.90;;;;;;4977676;28;19922;-77
2023/09/29 03:55:42;;;;;;;;;;;16.20;99.90;;;;;;4977617;28;19929;-77
2023/09/29 03:58:08;;;;;;;;;;;16.20;99.90;;;;;;4994800;28;19928;-78
2023/09/29 04:00:33;;;;;;;;;;;16.20;99.90;;;;;;4977133;28;19922;-76
2023/09/29 04:02:59;;;;;;;;;;;16.30;99.90;;;;;;4977354;28;19922;-78
2023/09/29 04:05:25;;;;;;;;;;;16.30;99.90;;;;;;4977555;28;19922;-76
2023/09/29 04:07:50;;;;;;;;;;;16.30;99.90;;;;;;4977460;28;19929;-78
2023/09/29 04:10:16;;;;;;;;;;;16.30;99.90;;;;;;4977063;28;19972;-79
2023/09/29 04:12:44;;;;;;;;;;;16.30;99.90;;;;;;4977202;28;19921;-79
2023/09/29 04:15:10;;;;;;;;;;;16.30;99.90;;;;;;4994522;28;19928;-78
2023/09/29 04:17:36;;;;;;;;;;;16.30;99.90;;;;;;4994595;28;19926;-77
2023/09/29 04:20:02;;;;;;;;;;;16.30;99.90;;;;;;4977456;28;19922;-78
2023/09/29 04:22:28;;;;;;;;;;;16.30;99.90;;;;;;4976980;28;19945;-77
2023/09/29 04:24:53;;;;;;;;;;;16.30;99.90;;;;;;4977282;28;19926;-77
2023/09/29 04:27:19;;;;;;;;;;;16.30;99.90;;;;;;4977396;28;19928;-78
2023/09/29 04:29:44;;;;;;;;;;;16.30;99.90;;;;;;4977116;28;19992;-78
2023/09/29 04:32:10;;;;;;;;;;;16.30;99.90;;;;;;4976915;28;19937;-77
2023/09/29 04:34:36;;;;;;;;;;;16.30;99.90;;;;;;4977552;28;19937;-77
2023/09/29 04:37:01;;;;;;;;;;;16.30;99.90;;;;;;4977318;28;20378;-77
2023/09/29 04:39:27;;;;;;;;;;;16.40;99.90;;;;;;4978688;28;19922;-77
2023/09/29 04:41:52;;;;;;;;;;;16.40;99.90;;;;;;4980947;28;20352;-77
2023/09/29 04:44:18;;;;;;;;;;;16.50;99.90;;;;;;4981210;28;19961;-76
2023/09/29 04:46:44;;;;;;;;;;;16.40;99.90;;;;;;4980786;28;19926;-76
2023/09/29 04:49:09;;;;;;;;;;;16.40;99.90;;;;;;4998199;28;19977;-77
2023/09/29 04:51:36;;;;;;;;;;;16.50;99.90;;;;;;4998177;28;20323;-76
2023/09/29 04:54:02;;;;;;;;;;;16.50;99.90;;;;;;4980652;28;19922;-77
2023/09/29 04:56:28;;;;;;;;;;;16.50;99.90;;;;;;4980711;28;19922;-77
2023/09/29 04:58:53;;;;;;;;;;;16.50;99.90;;;;;;4981007;28;19976;-78
2023/09/29 05:01:19;;;;;;;;;;;16.50;99.90;;;;;;4980525;28;20369;-78
2023/09/29 05:03:47;;;;;;;;;;;16.60;99.90;;;;;;4964471;28;20347;-78
2023/09/29 05:06:13;;;;;;;;;;;16.60;99.90;;;;;;4980732;28;19922;-78
2023/09/29 05:08:39;;;;;;;;;;;16.60;99.90;;;;;;4980689;28;19929;-77
2023/09/29 05:11:04;;;;;;;;;;;16.60;99.90;;;;;;4980640;28;19929;-77
2023/09/29 05:13:32;;;;;;;;;;;16.60;99.90;;;;;;4980326;28;20300;-77
2023/09/29 05:15:58;;;;;;;;;;;16.60;99.90;;;;;;4980189;28;19921;-77
2023/09/29 05:18:23;;;;;;;;;;;16.70;99.90;;;;;;4980364;28;19941;-77
2023/09/29 05:20:49;;;;;;;;;;;16.60;99.90;;;;;;4980204;28;19922;-78
2023/09/29 05:23:14;;;;;;;;;;;16.70;99.90;;;;;;4980269;28;19976;-77
2023/09/29 05:25:44;;;;;;;;;;;16.60;99.90;;;;;;4980150;28;19922;-79
2023/09/29 05:28:10;;;;;;;;;;;16.60;99.90;;;;;;4980443;28;19968;-79
2023/09/29 05:30:35;;;;;;;;;;;16.60;99.90;;;;;;4979979;28;20397;-78
2023/09/29 05:33:01;;;;;;;;;;;16.60;99.90;;;;;;4979959;28;19922;-77
2023/09/29 05:35:26;;;;;;;;;;;16.60;99.90;;;;;;4979978;28;19922;-79
2023/09/29 05:37:52;;;;;;;;;;;16.60;99.90;;;;;;4980239;28;20338;-79
2023/09/29 05:40:17;;;;;;;;;;;16.60;99.90;;;;;;4979791;28;20412;-77
2023/09/29 05:42:43;;;;;;;;;;;16.60;99.90;;;;;;4979984;28;19925;-79
2023/09/29 05:45:10;;;;;;;;;;;16.60;99.90;;;;;;4979906;28;19922;-80
2023/09/29 05:47:35;;;;;;;;;;;16.70;99.90;;;;;;4963565;28;19929;-79
2023/09/29 05:50:01;;;;;;;;;;;16.70;99.90;;;;;;4978731;28;19925;-80
2023/09/29 05:52:26;;;;;;;;;;;16.70;99.90;;;;;;4978784;28;19922;-80
2023/09/29 05:54:52;;;;;;;;;;;16.70;99.90;;;;;;4979261;28;19960;-81
2023/09/29 05:57:18;;;;;;;;;;;16.70;99.90;;;;;;4979269;28;19972;-79
2023/09/29 05:59:43;;;;;;;;;;;16.70;99.90;;;;;;4979519;28;19925;-79
2023/09/29 06:02:09;;;;;;;;;;;16.70;99.90;;;;;;4979204;28;19976;-80
2023/09/29 06:04:34;;;;;;;;;;;16.70;99.90;;;;;;4979745;28;19988;-77
2023/09/29 06:07:00;;;;;;;;;;;16.70;99.90;;;;;;4979469;28;20390;-78
2023/09/29 06:09:26;;;;;;;;;;;16.70;99.90;;;;;;4963426;28;19983;-79
2023/09/29 06:11:51;;;;;;;;;;;16.70;99.90;;;;;;4979044;28;19972;-78
2023/09/29 06:14:17;;;;;;;;;;;16.70;99.90;;;;;;4979090;28;19922;-79
2023/09/29 06:16:42;;;;;;;;;;;16.70;99.90;;;;;;4979160;28;19922;-77
2023/09/29 06:19:08;;;;;;;;;;;16.70;99.90;;;;;;4996562;28;19921;-76
2023/09/29 06:21:34;;;;;;;;;;;16.70;99.90;;;;;;4978905;28;19925;-76
2023/09/29 06:24:00;;;;;;;;;;;16.70;99.90;;;;;;4979036;28;19922;-79
2023/09/29 06:26:26;;;;;;;;;;;16.70;99.90;;;;;;4978889;28;19971;-77
2023/09/29 06:28:51;;;;;;;;;;;16.80;99.90;;;;;;4978819;28;19922;-78
2023/09/29 06:31:17;;;;;;;;;;;16.80;99.90;;;;;;4979054;28;19929;-77
2023/09/29 06:33:42;;;;;;;;;;;16.70;99.90;;;;;;4978887;28;19922;-77
2023/09/29 06:36:08;;;;;;;;;;;16.80;99.90;;;;;;4978736;28;19929;-78
2023/09/29 06:38:33;;;;;;;;;;;16.80;99.90;;;;;;4978980;28;19926;-79
2023/09/29 06:40:59;;;;;;;;;;;16.80;99.90;;;;;;4978969;28;20373;-78
2023/09/29 06:43:24;;;;;;;;;;;16.80;99.90;;;;;;4978935;28;20273;-79
2023/09/29 06:45:50;;;;;;;;;;;16.90;99.90;;;;;;4978649;28;20395;-78
2023/09/29 06:48:15;;;;;;;;;;;16.90;99.90;;;;;;4978631;28;19928;-78
2023/09/29 06:50:41;;;;;;;;;;;16.90;99.90;;;;;;4996117;28;19926;-78
2023/09/29 06:53:06;;;;;;;;;;;17.00;99.90;;;;;;4978526;28;19921;-79
2023/09/29 06:55:32;;;;;;;;;;;17.00;99.90;;;;;;4962594;28;20005;-77
2023/09/29 06:57:59;;;;;;;;;;;17.00;99.90;;;;;;4978689;28;19922;-78
2023/09/29 07:00:25;;;;;;;;;;;17.00;99.90;;;;;;4962456;28;20368;-77
2023/09/29 07:02:50;;;;;;;;;;;17.10;99.90;;;;;;4977948;28;19926;-77
2023/09/29 07:05:16;;;;;;;;;;;17.20;99.90;;;;;;4977761;28;19921;-77
2023/09/29 07:07:41;;;;;;;;;;;17.20;99.90;;;;;;4978491;28;19929;-76
2023/09/29 07:10:08;;;;;;;;;;;17.20;99.90;;;;;;4978227;28;20400;-78
2023/09/29 07:12:34;;;;;;;;;;;17.20;99.90;;;;;;4978109;28;19933;-80
2023/09/29 07:15:00;;;;;;;;;;;17.30;99.90;;;;;;4978163;28;19922;-77
2023/09/29 07:17:25;;;;;;;;;;;17.30;99.90;;;;;;4995794;28;19922;-78
2023/09/29 07:19:51;;;;;;;;;;;17.40;99.90;;;;;;4978138;28;19925;-77
2023/09/29 07:22:17;;;;;;;;;;;17.50;99.90;;;;;;4978262;28;20266;-78
2023/09/29 07:24:43;;;;;;;;;;;17.50;99.90;;;;;;4977987;28;20008;-78
2023/09/29 07:27:08;;;;;;;;;;;17.50;99.90;;;;;;4978220;28;19979;-77
2023/09/29 07:29:35;;;;;;;;;;;17.60;99.90;;;;;;4977776;28;19925;-77
2023/09/29 07:32:00;;;;;;;;;;;17.60;99.90;;;;;;4977656;28;20373;-79
2023/09/29 07:34:27;;;;;;;;;;;17.70;99.90;;;;;;4978012;28;19921;-78
2023/09/29 07:36:53;;;;;;;;;;;17.70;99.90;;;;;;4977718;28;19921;-77
2023/09/29 07:39:20;;;;;;;;;;;17.80;99.90;;;;;;4977859;28;19922;-77
2023/09/29 07:41:46;;;;;;;;;;;17.80;99.90;;;;;;4994866;28;19921;-76
2023/09/29 07:44:12;;;;;;;;;;;17.90;99.90;;;;;;4977838;28;19969;-77
2023/09/29 07:46:38;;;;;;;;;;;17.90;99.90;;;;;;4978554;28;19921;-77
2023/09/29 07:49:03;;;;;;;;;;;18.00;99.90;;;;;;4995153;28;20403;-76
2023/09/29 07:51:32;;;;;;;;;;;18.10;99.90;;;;;;4977415;28;20377;-78
2023/09/29 07:53:58;;;;;;;;;;;18.00;99.90;;;;;;4994818;28;19951;-78
2023/09/29 07:56:23;;;;;;;;;;;18.10;99.90;;;;;;4977348;28;20275;-74
2023/09/29 07:58:49;;;;;;;;;;;18.10;99.90;;;;;;4996046;28;19929;-80
2023/09/29 08:01:15;;;;;;;;;;;18.20;99.90;;;;;;4975847;28;19968;-80
2023/09/29 08:03:42;;;;;;;;;;;18.20;99.90;;;;;;4976962;28;20020;-73
2023/09/29 08:06:08;;;;;;;;;;;18.20;99.90;;;;;;4978033;28;19937;-80
2023/09/29 08:08:35;;;;;;;;;;;18.30;99.90;;;;;;4993998;28;20369;-79
2023/09/29 08:11:01;;;;;;;;;;;18.30;99.90;;;;;;4994534;28;20061;-80
2023/09/29 08:13:27;;;;;;;;;;;18.40;99.90;;;;;;4976438;28;19921;-78
2023/09/29 08:15:53;;;;;;;;;;;18.40;99.90;;;;;;4977078;28;19928;-77
2023/09/29 08:18:19;;;;;;;;;;;18.40;99.90;;;;;;4976939;28;19929;-76
2023/09/29 08:20:44;;;;;;;;;;;18.40;99.90;;;;;;4976987;28;19966;-78
2023/09/29 08:23:10;;;;;;;;;;;18.50;99.90;;;;;;4994647;28;19922;-79
2023/09/29 08:25:35;;;;;;;;;;;18.50;99.90;;;;;;4994330;28;19929;-77
2023/09/29 08:28:04;;;;;;;;;;;18.60;99.90;;;;;;4977205;28;19929;-78
2023/09/29 08:30:29;;;;;;;;;;;18.60;99.90;;;;;;4994434;28;19930;-77
2023/09/29 08:32:55;;;;;;;;;;;18.70;99.90;;;;;;4976894;28;19944;-76
2023/09/29 08:35:21;;;;;;;;;;;18.80;99.90;;;;;;4976996;28;19922;-79
2023/09/29 08:37:47;;;;;;;;;;;18.80;99.90;;;;;;4977201;28;19921;-78
2023/09/29 08:40:14;;;;;;;;;;;18.90;99.90;;;;;;4976835;28;19986;-76
2023/09/29 08:42:44;;;;;;;;;;;18.90;99.90;;;;;;4978115;28;19989;-79
2023/09/29 08:45:11;;;;;;;;;;;19.00;99.90;;;;;;4977184;28;19921;-77
2023/09/29 08:47:37;;;;;;;;;;;19.10;99.90;;;;;;4977095;28;20366;-79
2023/09/29 08:50:04;;;;;;;;;;;19.20;99.90;;;;;;4976743;28;19969;-78
2023/09/29 08:52:30;;;;;;;;;;;19.30;99.90;;;;;;4977784;28;19921;-78
2023/09/29 08:54:56;;;;;;;;;;;19.40;99.90;;;;;;4977049;28;19925;-78
2023/09/29 08:57:23;;;;;;;;;;;19.50;99.90;;;;;;4976692;28;20274;-76
2023/09/29 08:59:51;;;;;;;;;;;19.60;99.90;;;;;;4994388;28;19929;-76
2023/09/29 09:02:17;;;;;;;;;;;19.60;99.90;;;;;;4976463;28;20008;-78
2023/09/29 09:04:42;;;;;;;;;;;19.60;99.90;;;;;;4978057;28;20017;-78
2023/09/29 09:07:08;;;;;;;;;;;19.60;99.90;;;;;;4960513;28;20353;-79
2023/09/29 09:09:35;;;;;;;;;;;19.60;99.90;;;;;;4976816;28;19930;-77
2023/09/29 09:12:01;;;;;;;;;;;19.60;99.90;;;;;;4976533;28;19922;-80
2023/09/29 09:14:26;;;;;;;;;;;19.60;99.90;;;;;;4976542;28;19929;-76
2023/09/29 09:16:52;;;;;;;;;;;19.60;99.90;;;;;;4993968;28;19976;-79
2023/09/29 09:19:19;;;;;;;;;;;19.50;99.90;;;;;;4976451;28;19925;-79
2023/09/29 09:21:46;;;;;;;;;;;19.60;99.90;;;;;;4976421;28;20355;-78
2023/09/29 09:24:18;;;;;;;;;;;19.60;99.90;;;;;;4976506;28;19926;-79
2023/09/29 09:26:46;;;;;;;;;;;19.50;99.90;;;;;;4979958;28;19925;-79
2023/09/29 09:29:15;;;;;;;;;;;19.50;99.90;;;;;;4980455;28;19948;-75
2023/09/29 09:31:44;;;;;;;;;;;19.60;99.90;;;;;;4980372;28;19964;-81
2023/09/29 09:34:10;;;;;;;;;;;19.70;99.90;;;;;;4979912;28;19928;-79
2023/09/29 09:36:50;;;;;;;;;;;19.80;99.90;;;;;;4979923;28;19921;-79
2023/09/29 09:39:15;;;;;;;;;;;19.80;99.90;;;;;;4997294;28;20008;-78
2023/09/29 09:41:42;;;;;;;;;;;19.90;99.90;;;;;;4997253;28;19957;-76
2023/09/29 09:44:07;;;;;;;;;;;20.10;99.90;;;;;;4979823;28;19922;-78
2023/09/29 09:46:34;;;;;;;;;;;20.10;99.90;;;;;;4979679;28;19949;-76
2023/09/29 09:49:09;;;;;;;;;;;20.10;99.90;;;;;;4979568;28;19976;-77
2023/09/29 09:51:35;;;;;;;;;;;20.10;99.90;;;;;;4979833;28;19992;-79
2023/09/29 09:54:08;;;;;;;;;;;20.00;99.90;;;;;;4979791;28;20374;-77
2023/09/29 09:56:45;;;;;;;;;;;20.00;99.90;;;;;;4979638;28;19922;-79
2023/09/29 09:59:12;;;;;;;;;;;20.00;99.90;;;;;;4979593;28;19922;-79
2023/09/29 10:01:38;;;;;;;;;;;19.90;99.90;;;;;;4979673;28;20285;-79
2023/09/29 10:04:05;;;;;;;;;;;19.90;99.90;;;;;;4979634;28;19926;-79
2023/09/29 10:06:33;;;;;;;;;;;19.90;99.90;;;;;;4979309;28;19928;-78
2023/09/29 10:09:11;;;;;;;;;;;19.80;99.90;;;;;;4963415;28;20300;-76
2023/09/29 10:11:37;;;;;;;;;;;19.80;99.90;;;;;;4979252;28;20013;-77
2023/09/29 10:14:03;;;;;;;;;;;19.70;99.90;;;;;;4980216;28;19981;-77
2023/09/29 10:16:29;;;;;;;;;;;19.70;99.90;;;;;;4979339;28;19922;-78
2023/09/29 10:18:59;;;;;;;;;;;19.60;99.90;;;;;;4979153;28;19922;-79
2023/09/29 10:21:25;;;;;;;;;;;19.60;99.90;;;;;;4978889;28;19926;-77
2023/09/29 10:23:51;;;;;;;;;;;19.60;99.90;;;;;;4978980;28;19922;-75
2023/09/29 10:26:17;;;;;;;;;;;19.60;99.90;;;;;;4979317;28;19929;-75
2023/09/29 10:28:45;;;;;;;;;;;19.60;99.90;;;;;;4978830;28;20347;-75
2023/09/29 10:31:13;;;;;;;;;;;19.50;99.90;;;;;;4979659;28;19992;-76
2023/09/29 10:33:52;;;;;;;;;;;19.50;99.90;;;;;;4979183;28;19972;-78
2023/09/29 10:36:23;;;;;;;;;;;19.50;99.90;;;;;;4995876;28;19929;-77
2023/09/29 10:38:49;;;;;;;;;;;19.50;99.90;;;;;;4978662;28;19921;-78
2023/09/29 10:41:15;;;;;;;;;;;19.50;99.90;;;;;;4978875;28;20258;-77
2023/09/29 10:43:42;;;;;;;;;;;19.50;99.90;;;;;;4978556;28;19986;-78
2023/09/29 10:46:08;;;;;;;;;;;19.50;99.90;;;;;;4978390;28;19929;-77
2023/09/29 10:48:42;;;;;;;;;;;19.50;99.90;;;;;;4978514;28;20447;-76
2023/09/29 10:51:08;;;;;;;;;;;19.50;99.90;;;;;;4978472;28;20393;-76
2023/09/29 10:53:36;;;;;;;;;;;19.40;99.90;;;;;;4996426;28;19933;-79
2023/09/29 10:56:03;;;;;;;;;;;19.50;99.90;;;;;;4978397;28;20427;-78
2023/09/29 10:58:36;;;;;;;;;;;19.40;99.90;;;;;;4978298;28;20324;-75
2023/09/29 11:01:02;;;;;;;;;;;19.50;99.90;;;;;;4975011;28;20421;-79
2023/09/29 11:03:27;;;;;;;;;;;19.50;99.90;;;;;;4969249;28;19922;-79
2023/09/29 11:05:54;;;;;;;;;;;19.50;99.90;;;;;;4988206;28;19944;-77
2023/09/29 11:08:27;;;;;;;;;;;19.40;99.90;;;;;;4962183;28;20366;-77
2023/09/29 11:10:55;;;;;;;;;;;19.50;99.90;;;;;;4963256;28;20306;-77
2023/09/29 11:13:20;;;;;;;;;;;19.50;99.90;;;;;;4958747;28;19922;-76
2023/09/29 11:15:46;;;;;;;;;;;19.50;99.90;;;;;;4976061;28;19929;-79
2023/09/29 11:18:12;;;;;;;;;;;19.50;99.90;;;;;;4958657;28;19922;-78
2023/09/29 11:20:37;;;;;;;;;;;19.50;99.90;;;;;;4975943;28;19922;-79
2023/09/29 11:23:11;;;;;;;;;;;19.60;99.90;;;;;;4958595;28;19973;-77
2023/09/29 11:25:51;;;;;;;;;;;19.70;99.90;;;;;;4958565;28;19961;-76
2023/09/29 11:28:17;;;;;;;;;;;19.80;99.90;;;;;;4958480;28;19969;-78
2023/09/29 11:30:43;;;;;;;;;;;19.90;99.90;;;;;;4958228;28;19932;-78
2023/09/29 11:33:10;;;;;;;;;;;19.90;99.90;;;;;;4958677;28;20004;-77
2023/09/29 11:35:36;;;;;;;;;;;20.00;99.90;;;;;;4958722;28;19976;-77
2023/09/29 11:38:03;;;;;;;;;;;20.00;99.90;;;;;;4958598;28;20346;-77
2023/09/29 11:40:28;;;;;;;;;;;20.00;99.90;;;;;;4942273;28;19968;-78
2023/09/29 11:42:54;;;;;;;;;;;20.10;99.90;;;;;;4958236;28;20349;-80
2023/09/29 11:45:20;;;;;;;;;;;20.10;99.90;;;;;;4958480;28;20301;-76
2023/09/29 11:47:45;;;;;;;;;;;20.20;99.90;;;;;;4975524;28;20438;-79
2023/09/29 11:50:11;;;;;;;;;;;20.10;99.90;;;;;;4958042;28;19926;-77
2023/09/29 11:52:39;;;;;;;;;;;20.10;99.90;;;;;;4957885;28;19976;-78
2023/09/29 11:55:08;;;;;;;;;;;19.90;99.90;;;;;;4958077;28;19976;-80
2023/09/29 11:57:34;;;;;;;;;;;19.80;99.90;;;;;;4958006;28;19933;-79
2023/09/29 11:59:59;;;;;;;;;;;19.60;99.90;;;;;;4958005;28;19922;-79
2023/09/29 12:02:26;;;;;;;;;;;19.50;99.90;;;;;;4941764;28;20293;-77
2023/09/29 12:04:52;;;;;;;;;;;19.40;99.90;;;;;;4975164;28;20034;-77
2023/09/29 12:07:17;;;;;;;;;;;19.30;99.90;;;;;;4958515;28;19957;-78
2023/09/29 12:09:43;;;;;;;;;;;19.20;99.90;;;;;;4943108;28;19945;-79
2023/09/29 12:12:08;;;;;;;;;;;19.20;99.90;;;;;;4975089;28;19930;-78
2023/09/29 12:14:34;;;;;;;;;;;19.10;99.90;;;;;;4957866;28;19922;-77
2023/09/29 12:17:00;;;;;;;;;;;19.00;99.90;;;;;;4975184;28;19923;-78
2023/09/29 12:19:26;;;;;;;;;;;18.90;99.90;;;;;;4957677;28;19972;-79
2023/09/29 12:21:51;;;;;;;;;;;18.90;99.90;;;;;;4957575;28;19991;-79
2023/09/29 12:24:18;;;;;;;;;;;18.80;99.90;;;;;;4957980;28;20293;-76
2023/09/29 12:26:46;;;;;;;;;;;18.60;99.90;;;;;;4957811;28;20012;-77
2023/09/29 12:29:12;;;;;;;;;;;18.40;99.90;;;;;;4974839;28;19926;-77
2023/09/29 12:31:38;;;;;;;;;;;18.20;99.90;;;;;;4957471;28;19922;-77
2023/09/29 12:34:04;;;;;;;;;;;18.00;99.90;;;;;;4957521;28;19992;-76
2023/09/29 12:36:30;;;;;;;;;;;17.90;99.90;;;;;;4957852;28;20010;-76
2023/09/29 12:38:55;;;;;;;;;;;17.70;99.90;;;;;;4957466;28;19953;-77
2023/09/29 12:41:22;;;;;;;;;;;17.60;99.90;;;;;;4957414;28;19972;-76
2023/09/29 12:43:47;;;;;;;;;;;17.60;99.90;;;;;;4957771;28;19922;-77
2023/09/29 12:46:13;;;;;;;;;;;17.50;99.90;;;;;;4957613;28;20297;-77
2023/09/29 12:48:38;;;;;;;;;;;17.50;99.90;;;;;;4957668;28;19922;-78
2023/09/29 12:51:04;;;;;;;;;;;17.40;99.90;;;;;;4957269;28;20344;-77
2023/09/29 12:53:29;;;;;;;;;;;17.40;99.90;;;;;;4974982;28;19956;-77
2023/09/29 12:55:55;;;;;;;;;;;17.40;99.90;;;;;;4957420;28;19972;-76
2023/09/29 12:58:22;;;;;;;;;;;17.40;99.90;;;;;;4957605;28;19922;-76
2023/09/29 13:00:49;;;;;;;;;;;17.30;99.90;;;;;;4959408;28;19930;-79
2023/09/29 13:03:14;;;;;;;;;;;17.40;99.90;;;;;;4961043;28;19972;-77
2023/09/29 13:05:40;;;;;;;;;;;17.40;99.90;;;;;;4961118;28;19926;-77
2023/09/29 13:08:05;;;;;;;;;;;17.40;99.90;;;;;;4978378;28;20025;-78
2023/09/29 13:10:31;;;;;;;;;;;17.40;99.90;;;;;;4960987;28;19926;-77
2023/09/29 13:12:57;;;;;;;;;;;17.30;99.90;;;;;;4960974;28;19929;-76
2023/09/29 13:15:23;;;;;;;;;;;17.30;99.90;;;;;;4961257;28;19929;-78
2023/09/29 13:17:48;;;;;;;;;;;17.20;99.90;;;;;;4960915;28;19929;-76
2023/09/29 13:20:14;;;;;;;;;;;17.10;99.90;;;;;;4978229;28;20017;-77
2023/09/29 13:22:40;;;;;;;;;;;17.00;99.90;;;;;;4945371;28;19922;-77
2023/09/29 13:25:06;;;;;;;;;;;17.10;99.90;;;;;;4960882;28;19993;-76
2023/09/29 13:27:32;;;;;;;;;;;17.10;99.90;;;;;;4961123;28;19926;-77
2023/09/29 13:29:58;;;;;;;;;;;17.10;99.90;;;;;;4960763;28;19926;-75
2023/09/29 13:32:24;;;;;;;;;;;17.20;99.90;;;;;;4960667;28;20324;-76
2023/09/29 13:34:51;;;;;;;;;;;17.20;99.90;;;;;;4960662;28;20025;-77
2023/09/29 13:37:18;;;;;;;;;;;17.20;99.90;;;;;;4960581;28;19929;-76
2023/09/29 13:39:48;;;;;;;;;;;17.30;99.90;;;;;;4960517;28;19923;-75
2023/09/29 13:42:13;;;;;;;;;;;17.30;99.90;;;;;;4960290;28;20385;-76
2023/09/29 13:44:39;;;;;;;;;;;17.40;99.90;;;;;;4960451;28;19922;-76
2023/09/29 13:47:05;;;;;;;;;;;17.60;99.90;;;;;;4977706;28;19969;-76
2023/09/29 13:49:34;;;;;;;;;;;17.50;99.90;;;;;;4977568;28;19927;-78
2023/09/29 13:52:00;;;;;;;;;;;17.50;99.90;;;;;;4960268;28;19922;-76
2023/09/29 13:54:25;;;;;;;;;;;17.40;99.90;;;;;;4960347;28;19972;-76
2023/09/29 13:56:51;;;;;;;;;;;17.40;99.90;;;;;;4960210;28;19926;-77
2023/09/29 13:59:16;;;;;;;;;;;17.50;99.90;;;;;;4960001;28;19926;-76
2023/09/29 14:01:42;;;;;;;;;;;17.50;99.90;;;;;;4944193;28;20402;-77
2023/09/29 14:04:07;;;;;;;;;;;17.50;99.90;;;;;;4960087;28;20317;-75
2023/09/29 14:06:33;;;;;;;;;;;17.50;99.90;;;;;;4960253;28;19922;-75
2023/09/29 14:08:58;;;;;;;;;;;17.40;99.90;;;;;;4959922;28;19929;-77
2023/09/29 14:11:24;;;;;;;;;;;17.40;99.90;;;;;;4958738;28;19926;-75
2023/09/29 14:13:50;;;;;;;;;;;17.40;99.90;;;;;;4960530;28;19929;-76
2023/09/29 14:16:15;;;;;;;;;;;17.40;99.90;;;;;;4977181;28;20389;-76
2023/09/29 14:18:42;;;;;;;;;;;17.40;99.90;;;;;;4959920;28;19922;-78
2023/09/29 14:21:07;;;;;;;;;;;17.50;99.90;;;;;;4959871;28;19922;-77
2023/09/29 14:23:33;;;;;;;;;;;17.70;99.90;;;;;;4959876;28;19922;-79
2023/09/29 14:25:59;;;;;;;;;;;17.80;99.90;;;;;;4959766;28;19972;-76
2023/09/29 14:28:24;;;;;;;;;;;17.90;99.90;;;;;;4977071;28;19922;-77
2023/09/29 14:30:50;;;;;;;;;;;18.10;99.90;;;;;;4959480;28;19933;-77
2023/09/29 14:33:15;;;;;;;;;;;18.10;99.90;;;;;;4959549;28;19922;-76
2023/09/29 14:35:41;;;;;;;;;;;18.10;99.90;;;;;;4959512;28;19929;-76
2023/09/29 14:38:06;;;;;;;;;;;18.20;99.90;;;;;;4959536;28;19928;-77
2023/09/29 14:40:32;;;;;;;;;;;18.20;99.90;;;;;;4959666;28;19929;-76
2023/09/29 14:42:57;;;;;;;;;;;18.30;99.90;;;;;;4943401;28;20274;-77
2023/09/29 14:45:23;;;;;;;;;;;18.30;99.90;;;;;;4959359;28;19922;-77
2023/09/29 14:47:48;;;;;;;;;;;18.30;99.90;;;;;;4959237;28;19928;-76
2023/09/29 14:50:14;;;;;;;;;;;18.40;99.90;;;;;;4943282;28;19977;-75
2023/09/29 14:52:39;;;;;;;;;;;18.50;99.90;;;;;;4959419;28;19922;-76
2023/09/29 14:55:05;;;;;;;;;;;18.50;99.90;;;;;;4959234;28;19922;-75
2023/09/29 14:57:35;;;;;;;;;;;18.50;99.90;;;;;;4959105;28;20309;-76
2023/09/29 15:00:01;;;;;;;;;;;18.50;99.90;;;;;;4976479;28;19922;-76
2023/09/29 15:02:27;;;;;;;;;;;18.50;99.90;;;;;;4959150;28;19929;-76
2023/09/29 15:04:53;;;;;;;;;;;18.50;99.90;;;;;;4976398;28;19930;-76
2023/09/29 15:07:20;;;;;;;;;;;18.40;99.90;;;;;;4958537;28;19992;-76
2023/09/29 15:09:46;;;;;;;;;;;18.40;99.90;;;;;;4959157;28;19927;-76
2023/09/29 15:12:11;;;;;;;;;;;18.20;99.90;;;;;;4959029;28;19923;-77
2023/09/29 15:14:37;;;;;;;;;;;18.10;99.90;;;;;;4959139;28;19929;-76
2023/09/29 15:17:03;;;;;;;;;;;18.10;99.90;;;;;;4959289;28;19929;-77
2023/09/29 15:19:28;;;;;;;;;;;18.00;99.90;;;;;;4959334;28;19930;-77
2023/09/29 15:21:54;;;;;;;;;;;17.90;99.90;;;;;;4958771;28;19926;-76
2023/09/29 15:24:19;;;;;;;;;;;17.90;99.90;;;;;;4958314;28;20017;-78
2023/09/29 15:26:45;;;;;;;;;;;17.80;99.90;;;;;;4976707;28;20017;-77
2023/09/29 15:29:12;;;;;;;;;;;17.80;99.90;;;;;;4958718;28;19922;-76
2023/09/29 15:31:38;;;;;;;;;;;17.90;99.90;;;;;;4958412;28;19969;-76
2023/09/29 15:34:04;;;;;;;;;;;17.80;99.90;;;;;;4958838;28;20428;-76
2023/09/29 15:36:30;;;;;;;;;;;17.80;99.90;;;;;;4975699;28;19922;-74
2023/09/29 15:38:56;;;;;;;;;;;17.70;99.90;;;;;;4959195;28;20378;-75
2023/09/29 15:41:22;;;;;;;;;;;17.60;99.90;;;;;;4958524;28;19946;-75
2023/09/29 15:43:47;;;;;;;;;;;17.50;99.90;;;;;;4975893;28;20408;-75
2023/09/29 15:46:13;;;;;;;;;;;17.40;99.90;;;;;;4958125;28;19926;-77
2023/09/29 15:48:39;;;;;;;;;;;17.30;99.90;;;;;;4958121;28;19922;-76
2023/09/29 15:51:08;;;;;;;;;;;17.20;99.90;;;;;;4975564;28;20017;-76
2023/09/29 15:53:35;;;;;;;;;;;17.10;99.90;;;;;;4975676;28;19926;-77
2023/09/29 15:56:00;;;;;;;;;;;17.10;99.90;;;;;;4975334;28;20424;-76
2023/09/29 15:58:26;;;;;;;;;;;17.10;99.90;;;;;;4975419;28;19922;-76
2023/09/29 16:00:52;;;;;;;;;;;17.10;99.90;;;;;;4958280;28;19926;-76
2023/09/29 16:03:18;;;;;;;;;;;17.10;99.90;;;;;;4975289;28;19922;-75
2023/09/29 16:05:43;;;;;;;;;;;17.10;99.90;;;;;;4975527;28;20005;-76
2023/09/29 16:08:09;;;;;;;;;;;17.10;99.90;;;;;;4957770;28;20013;-75
2023/09/29 16:10:35;;;;;;;;;;;17.10;99.90;;;;;;4957910;28;19926;-75
2023/09/29 16:13:01;;;;;;;;;;;17.00;99.90;;;;;;4957781;28;19969;-75
2023/09/29 16:15:26;;;;;;;;;;;17.00;99.90;;;;;;4958384;28;19973;-76
2023/09/29 16:17:52;;;;;;;;;;;16.90;99.90;;;;;;4957709;28;19922;-76
2023/09/29 16:20:17;;;;;;;;;;;16.90;99.90;;;;;;4978065;28;19925;-76
2023/09/29 16:22:43;;;;;;;;;;;16.90;99.90;;;;;;4977451;28;19964;-75
2023/09/29 16:25:09;;;;;;;;;;;16.80;99.90;;;;;;4977367;28;19957;-76
2023/09/29 16:27:34;;;;;;;;;;;16.70;99.90;;;;;;4977251;28;19989;-75
2023/09/29 16:30:00;;;;;;;;;;;16.70;99.90;;;;;;4994330;28;19976;-76
2023/09/29 16:32:26;;;;;;;;;;;16.60;99.90;;;;;;4977521;28;19957;-76
2023/09/29 16:34:51;;;;;;;;;;;16.60;99.90;;;;;;4976903;28;20297;-77
2023/09/29 16:37:17;;;;;;;;;;;16.50;99.90;;;;;;4973766;28;19922;-77
2023/09/29 16:39:43;;;;;;;;;;;16.50;99.90;;;;;;4977556;28;19929;-77
2023/09/29 16:42:09;;;;;;;;;;;16.40;99.90;;;;;;4961557;28;20295;-76
2023/09/29 16:44:35;;;;;;;;;;;16.40;99.90;;;;;;5009341;28;19969;-76
2023/09/29 16:47:00;;;;;;;;;;;16.30;99.90;;;;;;4977351;28;20015;-75
2023/09/29 16:49:26;;;;;;;;;;;16.30;99.90;;;;;;5009509;28;19926;-76
2023/09/29 16:51:51;;;;;;;;;;;16.20;99.90;;;;;;4977113;28;19929;-76
2023/09/29 16:54:20;;;;;;;;;;;16.10;99.90;;;;;;4976755;28;19929;-77
2023/09/29 16:56:46;;;;;;;;;;;16.10;99.90;;;;;;4977371;28;19922;-76
2023/09/29 16:59:12;;;;;;;;;;;16.00;99.90;;;;;;4994515;28;20298;-76
2023/09/29 17:01:38;;;;;;;;;;;15.90;99.90;;;;;;4976849;28;19928;-76
2023/09/29 17:04:04;;;;;;;;;;;15.80;99.90;;;;;;4994277;28;20280;-76
2023/09/29 17:06:31;;;;;;;;;;;15.80;99.90;;;;;;4994288;28;19925;-76
2023/09/29 17:08:57;;;;;;;;;;;15.70;99.90;;;;;;4977354;28;19928;-76
2023/09/29 17:11:23;;;;;;;;;;;15.70;99.90;;;;;;4993956;28;19926;-76